sensor_id;sensor_type;location;lat;lon;timestamp;P1;durP1;ratioP1;P2;durP2;ratioP2
17520;SDS011;8878;-33.370;-70.552;2023-04-15T00:01:05;7.70;;;3.83;;
17520;SDS011;8878;-33.370;-70.552;2023-04-15T00:03:34;14.55;;;4.60;;
17520;SDS011;8878;-33.370;-70.552;2023-04-15T00:06:04;5.63;;;3.33;;
17520;SDS011;8878;-33.370;-70.552;2023-04-15T00:08:33;7.88;;;3.15;;
17520;SDS011;8878;-33.370;-70.552;2023-04-15T00:11:04;8.70;;;3.87;;
17520;SDS011;8878;-33.370;-70.552;2023-04-15T00:13:34;12.57;;;3.80;;
17520;SDS011;8878;-33.370;-70.552;2023-04-15T00:16:03;5.97;;;3.47;;
17520;SDS011;8878;-33.370;-70.552;2023-04-15T00:18:34;6.60;;;3.60;;
17520;SDS011;8878;-33.370;-70.552;2023-04-15T00:21:04;9.33;;;4.07;;
17520;SDS011;8878;-33.370;-70.552;2023-04-15T00:23:34;9.23;;;4.20;;
17520;SDS011;8878;-33.370;-70.552;2023-04-15T00:26:05;8.33;;;4.67;;
17520;SDS011;8878;-33.370;-70.552;2023-04-15T00:28:34;13.23;;;4.40;;
17520;SDS011;8878;-33.370;-70.552;2023-04-15T00:31:04;7.67;;;3.87;;
17520;SDS011;8878;-33.370;-70.552;2023-04-15T00:33:33;15.20;;;4.90;;
17520;SDS011;8878;-33.370;-70.552;2023-04-15T00:36:03;8.47;;;3.87;;
17520;SDS011;8878;-33.370;-70.552;2023-04-15T00:38:37;10.13;;;4.57;;
17520;SDS011;8878;-33.370;-70.552;2023-04-15T00:41:06;19.45;;;4.45;;
17520;SDS011;8878;-33.370;-70.552;2023-04-15T00:43:37;7.73;;;4.20;;
17520;SDS011;8878;-33.370;-70.552;2023-04-15T00:46:07;12.23;;;5.43;;
17520;SDS011;8878;-33.370;-70.552;2023-04-15T00:48:40;7.27;;;4.00;;
17520;SDS011;8878;-33.370;-70.552;2023-04-15T00:51:10;10.77;;;4.47;;
17520;SDS011;8878;-33.370;-70.552;2023-04-15T00:53:41;15.90;;;4.73;;
17520;SDS011;8878;-33.370;-70.552;2023-04-15T00:56:11;9.40;;;4.40;;
17520;SDS011;8878;-33.370;-70.552;2023-04-15T00:58:42;12.93;;;5.73;;
17520;SDS011;8878;-33.370;-70.552;2023-04-15T01:01:11;17.77;;;4.30;;
17520;SDS011;8878;-33.370;-70.552;2023-04-15T01:03:41;6.67;;;3.73;;
17520;SDS011;8878;-33.370;-70.552;2023-04-15T01:06:10;7.50;;;4.53;;
17520;SDS011;8878;-33.370;-70.552;2023-04-15T01:08:43;7.33;;;4.40;;
17520;SDS011;8878;-33.370;-70.552;2023-04-15T01:11:13;9.77;;;4.70;;
17520;SDS011;8878;-33.370;-70.552;2023-04-15T01:13:43;11.80;;;3.97;;
17520;SDS011;8878;-33.370;-70.552;2023-04-15T01:16:13;8.97;;;3.60;;
17520;SDS011;8878;-33.370;-70.552;2023-04-15T01:18:43;10.07;;;3.80;;
17520;SDS011;8878;-33.370;-70.552;2023-04-15T01:21:12;12.13;;;3.53;;
17520;SDS011;8878;-33.370;-70.552;2023-04-15T01:23:44;9.03;;;4.63;;
17520;SDS011;8878;-33.370;-70.552;2023-04-15T01:26:17;11.07;;;4.30;;
17520;SDS011;8878;-33.370;-70.552;2023-04-15T01:28:47;9.80;;;3.80;;
17520;SDS011;8878;-33.370;-70.552;2023-04-15T01:31:16;7.90;;;3.27;;
17520;SDS011;8878;-33.370;-70.552;2023-04-15T01:33:46;9.73;;;4.13;;
17520;SDS011;8878;-33.370;-70.552;2023-04-15T01:36:15;12.83;;;4.33;;
17520;SDS011;8878;-33.370;-70.552;2023-04-15T01:38:44;4.13;;;2.53;;
17520;SDS011;8878;-33.370;-70.552;2023-04-15T01:41:14;6.60;;;3.33;;
17520;SDS011;8878;-33.370;-70.552;2023-04-15T01:43:48;7.93;;;3.40;;
17520;SDS011;8878;-33.370;-70.552;2023-04-15T01:46:18;6.50;;;2.93;;
17520;SDS011;8878;-33.370;-70.552;2023-04-15T01:48:47;7.80;;;2.73;;
17520;SDS011;8878;-33.370;-70.552;2023-04-15T01:51:17;9.03;;;3.33;;
17520;SDS011;8878;-33.370;-70.552;2023-04-15T01:53:47;10.60;;;3.40;;
17520;SDS011;8878;-33.370;-70.552;2023-04-15T01:56:18;8.75;;;4.15;;
17520;SDS011;8878;-33.370;-70.552;2023-04-15T01:58:49;8.37;;;3.80;;
17520;SDS011;8878;-33.370;-70.552;2023-04-15T02:01:18;6.50;;;2.77;;
17520;SDS011;8878;-33.370;-70.552;2023-04-15T02:03:47;6.50;;;3.17;;
17520;SDS011;8878;-33.370;-70.552;2023-04-15T02:06:17;7.73;;;3.30;;
17520;SDS011;8878;-33.370;-70.552;2023-04-15T02:08:47;6.20;;;2.97;;
17520;SDS011;8878;-33.370;-70.552;2023-04-15T02:11:18;8.53;;;3.50;;
17520;SDS011;8878;-33.370;-70.552;2023-04-15T02:13:48;10.90;;;3.73;;
17520;SDS011;8878;-33.370;-70.552;2023-04-15T02:16:18;5.63;;;3.33;;
17520;SDS011;8878;-33.370;-70.552;2023-04-15T02:18:47;3.30;;;2.63;;
17520;SDS011;8878;-33.370;-70.552;2023-04-15T02:21:17;11.90;;;3.90;;
17520;SDS011;8878;-33.370;-70.552;2023-04-15T02:23:47;5.03;;;2.63;;
17520;SDS011;8878;-33.370;-70.552;2023-04-15T02:26:19;11.27;;;3.10;;
17520;SDS011;8878;-33.370;-70.552;2023-04-15T02:28:50;5.10;;;2.97;;
17520;SDS011;8878;-33.370;-70.552;2023-04-15T02:31:19;3.43;;;1.90;;
17520;SDS011;8878;-33.370;-70.552;2023-04-15T02:33:48;8.50;;;2.97;;
17520;SDS011;8878;-33.370;-70.552;2023-04-15T02:36:18;4.10;;;2.37;;
17520;SDS011;8878;-33.370;-70.552;2023-04-15T02:38:48;10.60;;;2.77;;
17520;SDS011;8878;-33.370;-70.552;2023-04-15T02:41:19;6.97;;;2.93;;
17520;SDS011;8878;-33.370;-70.552;2023-04-15T02:43:52;6.10;;;2.40;;
17520;SDS011;8878;-33.370;-70.552;2023-04-15T02:46:22;7.40;;;2.67;;
17520;SDS011;8878;-33.370;-70.552;2023-04-15T02:48:52;4.03;;;3.23;;
17520;SDS011;8878;-33.370;-70.552;2023-04-15T02:51:21;4.77;;;2.33;;
17520;SDS011;8878;-33.370;-70.552;2023-04-15T02:53:51;7.40;;;2.80;;
17520;SDS011;8878;-33.370;-70.552;2023-04-15T02:56:23;6.57;;;3.23;;
17520;SDS011;8878;-33.370;-70.552;2023-04-15T02:58:52;8.77;;;3.00;;
17520;SDS011;8878;-33.370;-70.552;2023-04-15T03:01:22;5.50;;;3.20;;
17520;SDS011;8878;-33.370;-70.552;2023-04-15T03:03:52;5.83;;;3.10;;
17520;SDS011;8878;-33.370;-70.552;2023-04-15T03:06:21;6.20;;;3.20;;
17520;SDS011;8878;-33.370;-70.552;2023-04-15T03:08:52;5.57;;;3.67;;
17520;SDS011;8878;-33.370;-70.552;2023-04-15T03:11:23;7.87;;;3.07;;
17520;SDS011;8878;-33.370;-70.552;2023-04-15T03:13:53;9.40;;;4.57;;
17520;SDS011;8878;-33.370;-70.552;2023-04-15T03:16:23;11.20;;;4.33;;
17520;SDS011;8878;-33.370;-70.552;2023-04-15T03:18:54;6.47;;;3.73;;
17520;SDS011;8878;-33.370;-70.552;2023-04-15T03:21:23;6.47;;;2.80;;
17520;SDS011;8878;-33.370;-70.552;2023-04-15T03:23:53;13.37;;;4.10;;
17520;SDS011;8878;-33.370;-70.552;2023-04-15T03:26:25;7.73;;;4.40;;
17520;SDS011;8878;-33.370;-70.552;2023-04-15T03:28:55;6.17;;;4.07;;
17520;SDS011;8878;-33.370;-70.552;2023-04-15T03:31:25;7.70;;;4.50;;
17520;SDS011;8878;-33.370;-70.552;2023-04-15T03:33:54;6.20;;;3.50;;
17520;SDS011;8878;-33.370;-70.552;2023-04-15T03:36:24;7.20;;;3.40;;
17520;SDS011;8878;-33.370;-70.552;2023-04-15T03:38:55;6.13;;;3.27;;
17520;SDS011;8878;-33.370;-70.552;2023-04-15T03:41:26;5.63;;;3.47;;
17520;SDS011;8878;-33.370;-70.552;2023-04-15T03:43:56;8.67;;;3.73;;
17520;SDS011;8878;-33.370;-70.552;2023-04-15T03:46:25;7.70;;;4.10;;
17520;SDS011;8878;-33.370;-70.552;2023-04-15T03:48:55;12.07;;;4.63;;
17520;SDS011;8878;-33.370;-70.552;2023-04-15T03:51:25;7.63;;;3.53;;
17520;SDS011;8878;-33.370;-70.552;2023-04-15T03:53:56;11.63;;;3.40;;
17520;SDS011;8878;-33.370;-70.552;2023-04-15T03:56:27;8.50;;;4.93;;
17520;SDS011;8878;-33.370;-70.552;2023-04-15T03:58:57;7.60;;;3.43;;
17520;SDS011;8878;-33.370;-70.552;2023-04-15T04:01:27;5.30;;;3.20;;
17520;SDS011;8878;-33.370;-70.552;2023-04-15T04:03:57;5.97;;;2.90;;
17520;SDS011;8878;-33.370;-70.552;2023-04-15T04:06:28;4.93;;;3.07;;
17520;SDS011;8878;-33.370;-70.552;2023-04-15T04:08:57;8.27;;;3.73;;
17520;SDS011;8878;-33.370;-70.552;2023-04-15T04:11:30;8.60;;;3.03;;
17520;SDS011;8878;-33.370;-70.552;2023-04-15T04:14:00;8.53;;;4.20;;
17520;SDS011;8878;-33.370;-70.552;2023-04-15T04:16:29;4.50;;;3.00;;
17520;SDS011;8878;-33.370;-70.552;2023-04-15T04:18:59;6.90;;;3.47;;
17520;SDS011;8878;-33.370;-70.552;2023-04-15T04:21:28;3.10;;;2.27;;
17520;SDS011;8878;-33.370;-70.552;2023-04-15T04:23:59;5.33;;;2.93;;
17520;SDS011;8878;-33.370;-70.552;2023-04-15T04:26:28;5.73;;;3.90;;
17520;SDS011;8878;-33.370;-70.552;2023-04-15T04:28:59;6.87;;;3.33;;
17520;SDS011;8878;-33.370;-70.552;2023-04-15T04:31:29;5.60;;;3.17;;
17520;SDS011;8878;-33.370;-70.552;2023-04-15T04:33:59;6.30;;;2.57;;
17520;SDS011;8878;-33.370;-70.552;2023-04-15T04:36:28;5.93;;;3.57;;
17520;SDS011;8878;-33.370;-70.552;2023-04-15T04:38:57;7.20;;;3.87;;
17520;SDS011;8878;-33.370;-70.552;2023-04-15T04:41:27;7.63;;;3.67;;
17520;SDS011;8878;-33.370;-70.552;2023-04-15T04:43:59;5.57;;;3.70;;
17520;SDS011;8878;-33.370;-70.552;2023-04-15T04:46:29;7.13;;;3.90;;
17520;SDS011;8878;-33.370;-70.552;2023-04-15T04:48:59;4.03;;;3.63;;
17520;SDS011;8878;-33.370;-70.552;2023-04-15T04:51:28;8.00;;;4.27;;
17520;SDS011;8878;-33.370;-70.552;2023-04-15T04:53:58;4.27;;;3.73;;
17520;SDS011;8878;-33.370;-70.552;2023-04-15T04:56:28;6.20;;;3.90;;
17520;SDS011;8878;-33.370;-70.552;2023-04-15T04:58:59;5.03;;;3.67;;
17520;SDS011;8878;-33.370;-70.552;2023-04-15T05:01:29;9.30;;;4.07;;
17520;SDS011;8878;-33.370;-70.552;2023-04-15T05:03:58;6.00;;;3.10;;
17520;SDS011;8878;-33.370;-70.552;2023-04-15T05:06:29;5.87;;;4.10;;
17520;SDS011;8878;-33.370;-70.552;2023-04-15T05:09:00;8.97;;;4.00;;
17520;SDS011;8878;-33.370;-70.552;2023-04-15T05:11:32;7.33;;;3.33;;
17520;SDS011;8878;-33.370;-70.552;2023-04-15T05:14:01;4.30;;;3.13;;
17520;SDS011;8878;-33.370;-70.552;2023-04-15T05:16:30;4.10;;;3.33;;
17520;SDS011;8878;-33.370;-70.552;2023-04-15T05:19:00;9.70;;;3.67;;
17520;SDS011;8878;-33.370;-70.552;2023-04-15T05:21:29;7.90;;;4.23;;
17520;SDS011;8878;-33.370;-70.552;2023-04-15T05:23:59;4.47;;;3.20;;
17520;SDS011;8878;-33.370;-70.552;2023-04-15T05:26:28;6.07;;;3.83;;
17520;SDS011;8878;-33.370;-70.552;2023-04-15T05:29:01;8.27;;;5.23;;
17520;SDS011;8878;-33.370;-70.552;2023-04-15T05:31:30;16.40;;;6.27;;
17520;SDS011;8878;-33.370;-70.552;2023-04-15T05:34:00;13.03;;;5.87;;
17520;SDS011;8878;-33.370;-70.552;2023-04-15T05:36:30;10.83;;;5.83;;
17520;SDS011;8878;-33.370;-70.552;2023-04-15T05:38:59;7.10;;;4.57;;
17520;SDS011;8878;-33.370;-70.552;2023-04-15T05:41:29;10.70;;;4.93;;
17520;SDS011;8878;-33.370;-70.552;2023-04-15T05:44:01;7.90;;;4.90;;
17520;SDS011;8878;-33.370;-70.552;2023-04-15T05:46:31;13.70;;;6.23;;
17520;SDS011;8878;-33.370;-70.552;2023-04-15T05:49:00;10.83;;;5.33;;
17520;SDS011;8878;-33.370;-70.552;2023-04-15T05:51:30;11.33;;;5.43;;
17520;SDS011;8878;-33.370;-70.552;2023-04-15T05:53:59;22.33;;;6.17;;
17520;SDS011;8878;-33.370;-70.552;2023-04-15T05:56:28;9.20;;;5.17;;
17520;SDS011;8878;-33.370;-70.552;2023-04-15T05:59:00;12.47;;;6.13;;
17520;SDS011;8878;-33.370;-70.552;2023-04-15T06:01:29;14.30;;;5.40;;
17520;SDS011;8878;-33.370;-70.552;2023-04-15T06:04:00;16.67;;;6.27;;
17520;SDS011;8878;-33.370;-70.552;2023-04-15T06:06:30;12.67;;;6.07;;
17520;SDS011;8878;-33.370;-70.552;2023-04-15T06:09:00;15.67;;;5.77;;
17520;SDS011;8878;-33.370;-70.552;2023-04-15T06:11:31;14.43;;;6.83;;
17520;SDS011;8878;-33.370;-70.552;2023-04-15T06:14:03;15.27;;;6.70;;
17520;SDS011;8878;-33.370;-70.552;2023-04-15T06:16:32;11.80;;;5.53;;
17520;SDS011;8878;-33.370;-70.552;2023-04-15T06:19:02;12.07;;;5.67;;
17520;SDS011;8878;-33.370;-70.552;2023-04-15T06:21:31;14.27;;;6.87;;
17520;SDS011;8878;-33.370;-70.552;2023-04-15T06:24:01;9.00;;;5.13;;
17520;SDS011;8878;-33.370;-70.552;2023-04-15T06:26:31;15.40;;;5.23;;
17520;SDS011;8878;-33.370;-70.552;2023-04-15T06:29:02;7.57;;;4.30;;
17520;SDS011;8878;-33.370;-70.552;2023-04-15T06:31:32;10.77;;;6.57;;
17520;SDS011;8878;-33.370;-70.552;2023-04-15T06:34:02;9.43;;;5.00;;
17520;SDS011;8878;-33.370;-70.552;2023-04-15T06:36:31;17.80;;;5.77;;
17520;SDS011;8878;-33.370;-70.552;2023-04-15T06:39:01;10.43;;;5.30;;
17520;SDS011;8878;-33.370;-70.552;2023-04-15T06:41:30;15.47;;;6.03;;
17520;SDS011;8878;-33.370;-70.552;2023-04-15T06:44:00;11.10;;;6.53;;
17520;SDS011;8878;-33.370;-70.552;2023-04-15T06:46:31;7.23;;;4.57;;
17520;SDS011;8878;-33.370;-70.552;2023-04-15T06:49:01;8.50;;;4.77;;
17520;SDS011;8878;-33.370;-70.552;2023-04-15T06:51:30;10.10;;;4.67;;
17520;SDS011;8878;-33.370;-70.552;2023-04-15T06:53:59;11.77;;;6.70;;
17520;SDS011;8878;-33.370;-70.552;2023-04-15T06:56:30;9.50;;;5.03;;
17520;SDS011;8878;-33.370;-70.552;2023-04-15T06:59:02;15.37;;;4.63;;
17520;SDS011;8878;-33.370;-70.552;2023-04-15T07:01:32;11.53;;;4.30;;
17520;SDS011;8878;-33.370;-70.552;2023-04-15T07:04:01;9.53;;;5.67;;
17520;SDS011;8878;-33.370;-70.552;2023-04-15T07:06:31;9.33;;;4.40;;
17520;SDS011;8878;-33.370;-70.552;2023-04-15T07:09:00;7.67;;;4.30;;
17520;SDS011;8878;-33.370;-70.552;2023-04-15T07:11:30;9.20;;;4.07;;
17520;SDS011;8878;-33.370;-70.552;2023-04-15T07:13:59;5.37;;;3.37;;
17520;SDS011;8878;-33.370;-70.552;2023-04-15T07:16:31;4.53;;;3.00;;
17520;SDS011;8878;-33.370;-70.552;2023-04-15T07:19:01;6.00;;;3.63;;
17520;SDS011;8878;-33.370;-70.552;2023-04-15T07:21:30;6.37;;;3.97;;
17520;SDS011;8878;-33.370;-70.552;2023-04-15T07:24:00;13.17;;;3.83;;
17520;SDS011;8878;-33.370;-70.552;2023-04-15T07:26:29;6.53;;;3.10;;
17520;SDS011;8878;-33.370;-70.552;2023-04-15T07:28:59;8.67;;;3.70;;
17520;SDS011;8878;-33.370;-70.552;2023-04-15T07:31:30;5.73;;;2.93;;
17520;SDS011;8878;-33.370;-70.552;2023-04-15T07:33:59;9.30;;;3.17;;
17520;SDS011;8878;-33.370;-70.552;2023-04-15T07:36:29;4.97;;;3.23;;
17520;SDS011;8878;-33.370;-70.552;2023-04-15T07:38:59;4.23;;;1.97;;
17520;SDS011;8878;-33.370;-70.552;2023-04-15T07:41:29;6.30;;;3.80;;
17520;SDS011;8878;-33.370;-70.552;2023-04-15T07:43:58;5.67;;;3.57;;
17520;SDS011;8878;-33.370;-70.552;2023-04-15T07:46:28;3.83;;;3.30;;
17520;SDS011;8878;-33.370;-70.552;2023-04-15T07:48:59;4.57;;;2.63;;
17520;SDS011;8878;-33.370;-70.552;2023-04-15T07:51:28;2.97;;;1.77;;
17520;SDS011;8878;-33.370;-70.552;2023-04-15T07:53:58;6.97;;;2.97;;
17520;SDS011;8878;-33.370;-70.552;2023-04-15T07:56:31;4.77;;;3.20;;
17520;SDS011;8878;-33.370;-70.552;2023-04-15T07:59:00;8.07;;;3.50;;
17520;SDS011;8878;-33.370;-70.552;2023-04-15T08:01:33;3.23;;;2.23;;
17520;SDS011;8878;-33.370;-70.552;2023-04-15T08:04:08;5.10;;;2.93;;
17520;SDS011;8878;-33.370;-70.552;2023-04-15T08:06:38;10.60;;;3.77;;
17520;SDS011;8878;-33.370;-70.552;2023-04-15T08:09:07;7.37;;;3.90;;
17520;SDS011;8878;-33.370;-70.552;2023-04-15T08:11:38;8.87;;;4.60;;
17520;SDS011;8878;-33.370;-70.552;2023-04-15T08:14:07;12.30;;;5.70;;
17520;SDS011;8878;-33.370;-70.552;2023-04-15T08:16:39;9.77;;;5.47;;
17520;SDS011;8878;-33.370;-70.552;2023-04-15T08:19:08;9.27;;;5.30;;
17520;SDS011;8878;-33.370;-70.552;2023-04-15T08:21:38;11.87;;;4.93;;
17520;SDS011;8878;-33.370;-70.552;2023-04-15T08:24:07;10.00;;;5.53;;
17520;SDS011;8878;-33.370;-70.552;2023-04-15T08:26:37;8.10;;;5.07;;
17520;SDS011;8878;-33.370;-70.552;2023-04-15T08:29:07;12.43;;;7.10;;
17520;SDS011;8878;-33.370;-70.552;2023-04-15T08:31:38;13.63;;;5.57;;
17520;SDS011;8878;-33.370;-70.552;2023-04-15T08:34:09;13.43;;;5.33;;
17520;SDS011;8878;-33.370;-70.552;2023-04-15T08:36:40;9.53;;;5.90;;
17520;SDS011;8878;-33.370;-70.552;2023-04-15T08:39:09;11.20;;;4.83;;
17520;SDS011;8878;-33.370;-70.552;2023-04-15T08:41:39;18.37;;;7.47;;
17520;SDS011;8878;-33.370;-70.552;2023-04-15T08:44:15;11.07;;;6.60;;
17520;SDS011;8878;-33.370;-70.552;2023-04-15T08:46:46;10.90;;;5.13;;
17520;SDS011;8878;-33.370;-70.552;2023-04-15T08:49:16;14.00;;;6.80;;
17520;SDS011;8878;-33.370;-70.552;2023-04-15T08:51:48;13.93;;;6.23;;
17520;SDS011;8878;-33.370;-70.552;2023-04-15T08:54:18;11.50;;;5.50;;
17520;SDS011;8878;-33.370;-70.552;2023-04-15T08:56:47;14.83;;;5.67;;
17520;SDS011;8878;-33.370;-70.552;2023-04-15T08:59:17;12.70;;;5.30;;
17520;SDS011;8878;-33.370;-70.552;2023-04-15T09:01:50;15.43;;;6.77;;
17520;SDS011;8878;-33.370;-70.552;2023-04-15T09:04:20;15.13;;;7.03;;
17520;SDS011;8878;-33.370;-70.552;2023-04-15T09:06:49;14.97;;;6.57;;
17520;SDS011;8878;-33.370;-70.552;2023-04-15T09:09:19;12.03;;;6.07;;
17520;SDS011;8878;-33.370;-70.552;2023-04-15T09:11:48;13.97;;;6.57;;
17520;SDS011;8878;-33.370;-70.552;2023-04-15T09:14:18;14.17;;;7.53;;
17520;SDS011;8878;-33.370;-70.552;2023-04-15T09:17:00;11.30;;;6.47;;
17520;SDS011;8878;-33.370;-70.552;2023-04-15T09:19:30;10.83;;;4.93;;
17520;SDS011;8878;-33.370;-70.552;2023-04-15T09:22:00;8.07;;;4.63;;
17520;SDS011;8878;-33.370;-70.552;2023-04-15T09:24:34;10.50;;;5.47;;
17520;SDS011;8878;-33.370;-70.552;2023-04-15T09:27:07;12.00;;;5.17;;
17520;SDS011;8878;-33.370;-70.552;2023-04-15T09:29:36;13.60;;;6.73;;
17520;SDS011;8878;-33.370;-70.552;2023-04-15T09:32:13;15.00;;;5.60;;
17520;SDS011;8878;-33.370;-70.552;2023-04-15T09:34:43;12.07;;;5.87;;
17520;SDS011;8878;-33.370;-70.552;2023-04-15T09:37:12;14.50;;;6.50;;
17520;SDS011;8878;-33.370;-70.552;2023-04-15T09:39:46;13.30;;;6.20;;
17520;SDS011;8878;-33.370;-70.552;2023-04-15T09:42:17;13.07;;;5.77;;
17520;SDS011;8878;-33.370;-70.552;2023-04-15T09:44:49;12.43;;;5.63;;
17520;SDS011;8878;-33.370;-70.552;2023-04-15T09:47:30;8.20;;;5.20;;
17520;SDS011;8878;-33.370;-70.552;2023-04-15T09:49:59;15.23;;;6.23;;
17520;SDS011;8878;-33.370;-70.552;2023-04-15T09:52:29;11.57;;;5.27;;
17520;SDS011;8878;-33.370;-70.552;2023-04-15T09:55:00;13.30;;;6.37;;
17520;SDS011;8878;-33.370;-70.552;2023-04-15T09:57:33;12.43;;;6.37;;
17520;SDS011;8878;-33.370;-70.552;2023-04-15T10:00:03;12.03;;;6.23;;
17520;SDS011;8878;-33.370;-70.552;2023-04-15T10:02:35;16.33;;;6.90;;
17520;SDS011;8878;-33.370;-70.552;2023-04-15T10:05:07;13.93;;;6.43;;
17520;SDS011;8878;-33.370;-70.552;2023-04-15T10:07:40;15.80;;;5.77;;
17520;SDS011;8878;-33.370;-70.552;2023-04-15T10:10:11;9.10;;;4.90;;
17520;SDS011;8878;-33.370;-70.552;2023-04-15T10:12:41;14.30;;;6.83;;
17520;SDS011;8878;-33.370;-70.552;2023-04-15T10:15:13;16.63;;;5.77;;
17520;SDS011;8878;-33.370;-70.552;2023-04-15T10:17:45;12.07;;;5.60;;
17520;SDS011;8878;-33.370;-70.552;2023-04-15T10:20:17;14.87;;;7.47;;
17520;SDS011;8878;-33.370;-70.552;2023-04-15T10:22:48;11.97;;;5.30;;
17520;SDS011;8878;-33.370;-70.552;2023-04-15T10:27:50;14.60;;;6.57;;
17520;SDS011;8878;-33.370;-70.552;2023-04-15T10:30:21;10.53;;;5.97;;
17520;SDS011;8878;-33.370;-70.552;2023-04-15T10:32:52;15.30;;;6.53;;
17520;SDS011;8878;-33.370;-70.552;2023-04-15T10:35:23;18.90;;;7.13;;
17520;SDS011;8878;-33.370;-70.552;2023-04-15T10:37:53;16.13;;;7.33;;
17520;SDS011;8878;-33.370;-70.552;2023-04-15T10:40:26;12.93;;;6.23;;
17520;SDS011;8878;-33.370;-70.552;2023-04-15T10:42:58;15.70;;;6.70;;
17520;SDS011;8878;-33.370;-70.552;2023-04-15T10:45:31;12.30;;;5.87;;
17520;SDS011;8878;-33.370;-70.552;2023-04-15T10:48:05;13.27;;;5.33;;
17520;SDS011;8878;-33.370;-70.552;2023-04-15T10:50:35;11.43;;;5.47;;
17520;SDS011;8878;-33.370;-70.552;2023-04-15T10:53:05;13.67;;;5.50;;
17520;SDS011;8878;-33.370;-70.552;2023-04-15T10:55:38;10.93;;;5.60;;
17520;SDS011;8878;-33.370;-70.552;2023-04-15T10:58:07;12.73;;;5.47;;
17520;SDS011;8878;-33.370;-70.552;2023-04-15T11:00:40;9.10;;;5.00;;
17520;SDS011;8878;-33.370;-70.552;2023-04-15T11:06:07;7.77;;;4.57;;
17520;SDS011;8878;-33.370;-70.552;2023-04-15T11:14:33;17.87;;;6.30;;
17520;SDS011;8878;-33.370;-70.552;2023-04-15T11:17:06;10.60;;;5.00;;
17520;SDS011;8878;-33.370;-70.552;2023-04-15T11:19:38;13.67;;;6.00;;
17520;SDS011;8878;-33.370;-70.552;2023-04-15T11:22:08;11.33;;;5.40;;
17520;SDS011;8878;-33.370;-70.552;2023-04-15T11:24:46;11.63;;;6.33;;
17520;SDS011;8878;-33.370;-70.552;2023-04-15T11:27:24;11.57;;;5.10;;
17520;SDS011;8878;-33.370;-70.552;2023-04-15T11:29:54;9.07;;;5.87;;
17520;SDS011;8878;-33.370;-70.552;2023-04-15T11:32:23;9.70;;;5.63;;
17520;SDS011;8878;-33.370;-70.552;2023-04-15T11:34:54;12.83;;;5.70;;
17520;SDS011;8878;-33.370;-70.552;2023-04-15T11:37:29;15.87;;;6.00;;
17520;SDS011;8878;-33.370;-70.552;2023-04-15T11:40:01;13.87;;;5.10;;
17520;SDS011;8878;-33.370;-70.552;2023-04-15T11:42:30;16.93;;;6.77;;
17520;SDS011;8878;-33.370;-70.552;2023-04-15T11:45:05;12.60;;;5.53;;
17520;SDS011;8878;-33.370;-70.552;2023-04-15T11:47:35;10.90;;;5.83;;
17520;SDS011;8878;-33.370;-70.552;2023-04-15T11:50:16;20.37;;;7.13;;
17520;SDS011;8878;-33.370;-70.552;2023-04-15T11:52:52;15.00;;;7.27;;
17520;SDS011;8878;-33.370;-70.552;2023-04-15T11:55:22;15.70;;;6.60;;
17520;SDS011;8878;-33.370;-70.552;2023-04-15T11:58:05;19.43;;;7.10;;
17520;SDS011;8878;-33.370;-70.552;2023-04-15T12:00:37;11.80;;;5.37;;
17520;SDS011;8878;-33.370;-70.552;2023-04-15T12:03:16;11.97;;;5.43;;
17520;SDS011;8878;-33.370;-70.552;2023-04-15T12:06:05;15.33;;;6.60;;
17520;SDS011;8878;-33.370;-70.552;2023-04-15T12:11:36;13.70;;;7.93;;
17520;SDS011;8878;-33.370;-70.552;2023-04-15T12:14:10;13.67;;;5.80;;
17520;SDS011;8878;-33.370;-70.552;2023-04-15T12:16:44;13.77;;;7.30;;
17520;SDS011;8878;-33.370;-70.552;2023-04-15T12:19:14;14.77;;;6.73;;
17520;SDS011;8878;-33.370;-70.552;2023-04-15T12:21:49;15.63;;;7.53;;
17520;SDS011;8878;-33.370;-70.552;2023-04-15T12:24:19;19.87;;;6.60;;
17520;SDS011;8878;-33.370;-70.552;2023-04-15T12:26:49;20.30;;;7.20;;
17520;SDS011;8878;-33.370;-70.552;2023-04-15T12:29:19;23.50;;;6.83;;
17520;SDS011;8878;-33.370;-70.552;2023-04-15T12:31:52;17.00;;;7.93;;
17520;SDS011;8878;-33.370;-70.552;2023-04-15T12:34:27;22.77;;;7.40;;
17520;SDS011;8878;-33.370;-70.552;2023-04-15T12:37:00;18.00;;;7.63;;
17520;SDS011;8878;-33.370;-70.552;2023-04-15T12:39:33;11.13;;;6.17;;
17520;SDS011;8878;-33.370;-70.552;2023-04-15T12:42:04;15.00;;;7.40;;
17520;SDS011;8878;-33.370;-70.552;2023-04-15T12:44:34;19.30;;;7.63;;
17520;SDS011;8878;-33.370;-70.552;2023-04-15T12:47:04;20.53;;;7.63;;
17520;SDS011;8878;-33.370;-70.552;2023-04-15T12:49:35;20.90;;;7.80;;
17520;SDS011;8878;-33.370;-70.552;2023-04-15T12:52:06;20.37;;;7.90;;
17520;SDS011;8878;-33.370;-70.552;2023-04-15T12:54:35;19.63;;;7.13;;
17520;SDS011;8878;-33.370;-70.552;2023-04-15T12:57:06;16.30;;;6.83;;
17520;SDS011;8878;-33.370;-70.552;2023-04-15T12:59:35;21.80;;;9.77;;
17520;SDS011;8878;-33.370;-70.552;2023-04-15T13:02:05;22.07;;;8.63;;
17520;SDS011;8878;-33.370;-70.552;2023-04-15T13:04:35;31.83;;;9.57;;
17520;SDS011;8878;-33.370;-70.552;2023-04-15T13:07:07;17.47;;;7.03;;
17520;SDS011;8878;-33.370;-70.552;2023-04-15T13:09:38;14.50;;;6.73;;
17520;SDS011;8878;-33.370;-70.552;2023-04-15T13:12:08;19.83;;;7.13;;
17520;SDS011;8878;-33.370;-70.552;2023-04-15T13:14:38;16.10;;;7.87;;
17520;SDS011;8878;-33.370;-70.552;2023-04-15T13:17:08;15.73;;;6.37;;
17520;SDS011;8878;-33.370;-70.552;2023-04-15T13:19:37;20.43;;;7.83;;
17520;SDS011;8878;-33.370;-70.552;2023-04-15T13:22:10;12.27;;;7.27;;
17520;SDS011;8878;-33.370;-70.552;2023-04-15T13:24:40;19.03;;;8.80;;
17520;SDS011;8878;-33.370;-70.552;2023-04-15T13:27:09;11.40;;;6.40;;
17520;SDS011;8878;-33.370;-70.552;2023-04-15T13:29:39;15.13;;;7.80;;
17520;SDS011;8878;-33.370;-70.552;2023-04-15T13:32:08;18.00;;;8.47;;
17520;SDS011;8878;-33.370;-70.552;2023-04-15T13:34:37;23.37;;;8.33;;
17520;SDS011;8878;-33.370;-70.552;2023-04-15T13:37:07;18.10;;;7.40;;
17520;SDS011;8878;-33.370;-70.552;2023-04-15T13:39:39;15.40;;;7.17;;
17520;SDS011;8878;-33.370;-70.552;2023-04-15T13:42:08;19.50;;;9.00;;
17520;SDS011;8878;-33.370;-70.552;2023-04-15T13:44:38;15.37;;;8.30;;
17520;SDS011;8878;-33.370;-70.552;2023-04-15T13:47:07;21.90;;;7.93;;
17520;SDS011;8878;-33.370;-70.552;2023-04-15T13:49:36;19.83;;;9.63;;
17520;SDS011;8878;-33.370;-70.552;2023-04-15T13:52:06;26.40;;;9.60;;
17520;SDS011;8878;-33.370;-70.552;2023-04-15T13:54:37;18.17;;;8.60;;
17520;SDS011;8878;-33.370;-70.552;2023-04-15T13:57:07;19.83;;;9.27;;
17520;SDS011;8878;-33.370;-70.552;2023-04-15T13:59:36;22.87;;;9.33;;
17520;SDS011;8878;-33.370;-70.552;2023-04-15T14:02:06;18.53;;;7.87;;
17520;SDS011;8878;-33.370;-70.552;2023-04-15T14:04:35;17.60;;;8.50;;
17520;SDS011;8878;-33.370;-70.552;2023-04-15T14:07:05;27.73;;;10.43;;
17520;SDS011;8878;-33.370;-70.552;2023-04-15T14:09:34;19.53;;;9.70;;
17520;SDS011;8878;-33.370;-70.552;2023-04-15T14:12:06;27.23;;;9.43;;
17520;SDS011;8878;-33.370;-70.552;2023-04-15T14:14:37;19.37;;;8.63;;
17520;SDS011;8878;-33.370;-70.552;2023-04-15T14:17:19;22.83;;;9.67;;
17520;SDS011;8878;-33.370;-70.552;2023-04-15T14:19:50;21.20;;;9.97;;
17520;SDS011;8878;-33.370;-70.552;2023-04-15T14:22:25;21.47;;;9.40;;
17520;SDS011;8878;-33.370;-70.552;2023-04-15T14:24:59;19.00;;;8.87;;
17520;SDS011;8878;-33.370;-70.552;2023-04-15T14:27:34;28.27;;;9.83;;
17520;SDS011;8878;-33.370;-70.552;2023-04-15T14:30:07;21.00;;;8.77;;
17520;SDS011;8878;-33.370;-70.552;2023-04-15T14:32:37;19.13;;;9.90;;
17520;SDS011;8878;-33.370;-70.552;2023-04-15T14:35:06;24.33;;;8.77;;
17520;SDS011;8878;-33.370;-70.552;2023-04-15T14:37:36;21.67;;;9.17;;
17520;SDS011;8878;-33.370;-70.552;2023-04-15T14:40:12;22.02;;;9.52;;
17520;SDS011;8878;-33.370;-70.552;2023-04-15T14:42:42;17.98;;;7.88;;
17520;SDS011;8878;-33.370;-70.552;2023-04-15T14:45:12;26.83;;;10.77;;
17520;SDS011;8878;-33.370;-70.552;2023-04-15T14:47:46;23.63;;;8.45;;